sensor_id;sensor_type;location;lat;lon;timestamp;pressure;altitude;pressure_sealevel;temperature;humidity
5777;BME280;2914;42.668;23.346;2022-07-12T00:03:08;94961.84;;;17.31;58.90
5777;BME280;2914;42.668;23.346;2022-07-12T00:05:37;94964.00;;;17.32;58.79
5777;BME280;2914;42.668;23.346;2022-07-12T00:08:06;94971.22;;;17.23;58.83
5777;BME280;2914;42.668;23.346;2022-07-12T00:10:35;94965.73;;;17.16;59.56
5777;BME280;2914;42.668;23.346;2022-07-12T00:13:05;94968.39;;;17.20;59.22
5777;BME280;2914;42.668;23.346;2022-07-12T00:15:34;94968.38;;;17.24;59.27
5777;BME280;2914;42.668;23.346;2022-07-12T00:20:40;94969.30;;;17.40;59.47
5777;BME280;2914;42.668;23.346;2022-07-12T00:23:09;94966.17;;;17.28;58.71
5777;BME280;2914;42.668;23.346;2022-07-12T00:25:38;94967.48;;;17.32;58.24
5777;BME280;2914;42.668;23.346;2022-07-12T00:28:08;94966.98;;;17.37;58.44
5777;BME280;2914;42.668;23.346;2022-07-12T00:30:37;94971.13;;;17.43;58.60
5777;BME280;2914;42.668;23.346;2022-07-12T00:33:06;94966.41;;;17.50;57.95
5777;BME280;2914;42.668;23.346;2022-07-12T00:35:36;94968.08;;;17.51;57.74
5777;BME280;2914;42.668;23.346;2022-07-12T00:38:05;94966.39;;;17.54;57.45
5777;BME280;2914;42.668;23.346;2022-07-12T00:40:34;94965.56;;;17.53;57.14
5777;BME280;2914;42.668;23.346;2022-07-12T00:43:03;94970.15;;;17.32;57.75
5777;BME280;2914;42.668;23.346;2022-07-12T00:45:32;94969.47;;;17.38;57.60
5777;BME280;2914;42.668;23.346;2022-07-12T00:48:02;94968.94;;;17.43;57.26
5777;BME280;2914;42.668;23.346;2022-07-12T00:50:31;94961.44;;;17.46;56.99
5777;BME280;2914;42.668;23.346;2022-07-12T00:53:00;94967.20;;;17.54;56.84
5777;BME280;2914;42.668;23.346;2022-07-12T00:55:30;94961.70;;;17.60;56.90
5777;BME280;2914;42.668;23.346;2022-07-12T00:58:00;94958.36;;;17.58;57.00
5777;BME280;2914;42.668;23.346;2022-07-12T01:00:29;94955.85;;;17.60;56.93
5777;BME280;2914;42.668;23.346;2022-07-12T01:03:01;94960.03;;;17.59;56.80
5777;BME280;2914;42.668;23.346;2022-07-12T01:05:31;94960.65;;;17.65;56.72
5777;BME280;2914;42.668;23.346;2022-07-12T01:08:00;94957.01;;;17.62;56.65
5777;BME280;2914;42.668;23.346;2022-07-12T01:10:30;94960.34;;;17.64;56.13
5777;BME280;2914;42.668;23.346;2022-07-12T01:13:01;94955.70;;;17.58;57.42
5777;BME280;2914;42.668;23.346;2022-07-12T01:15:31;94961.34;;;17.63;57.58
5777;BME280;2914;42.668;23.346;2022-07-12T01:20:45;94958.92;;;17.49;57.73
5777;BME280;2914;42.668;23.346;2022-07-12T01:23:15;94962.25;;;17.47;57.52
5777;BME280;2914;42.668;23.346;2022-07-12T01:25:44;94964.63;;;17.38;57.30
5777;BME280;2914;42.668;23.346;2022-07-12T01:28:13;94962.25;;;17.47;57.66
5777;BME280;2914;42.668;23.346;2022-07-12T01:30:43;94960.52;;;17.58;57.42
5777;BME280;2914;42.668;23.346;2022-07-12T01:33:12;94958.31;;;17.66;56.98
5777;BME280;2914;42.668;23.346;2022-07-12T01:35:41;94961.20;;;17.56;56.77
5777;BME280;2914;42.668;23.346;2022-07-12T01:38:11;94961.05;;;17.54;57.13
5777;BME280;2914;42.668;23.346;2022-07-12T01:40:40;94959.90;;;17.52;57.40
5777;BME280;2914;42.668;23.346;2022-07-12T01:43:09;94963.61;;;17.43;58.03
5777;BME280;2914;42.668;23.346;2022-07-12T01:45:38;94957.41;;;17.51;59.83
5777;BME280;2914;42.668;23.346;2022-07-12T01:48:08;94955.77;;;17.45;60.28
5777;BME280;2914;42.668;23.346;2022-07-12T01:50:38;94962.78;;;17.42;60.25
5777;BME280;2914;42.668;23.346;2022-07-12T01:53:07;94956.64;;;17.34;60.58
5777;BME280;2914;42.668;23.346;2022-07-12T01:55:38;94958.90;;;17.18;60.83
5777;BME280;2914;42.668;23.346;2022-07-12T01:58:08;94967.12;;;17.00;61.24
5777;BME280;2914;42.668;23.346;2022-07-12T02:00:38;94957.85;;;16.71;62.01
5777;BME280;2914;42.668;23.346;2022-07-12T02:03:07;94958.86;;;16.66;62.12
5777;BME280;2914;42.668;23.346;2022-07-12T02:05:36;94957.35;;;16.67;61.92
5777;BME280;2914;42.668;23.346;2022-07-12T02:08:06;94954.05;;;16.65;62.13
5777;BME280;2914;42.668;23.346;2022-07-12T02:10:35;94960.72;;;16.57;62.58
5777;BME280;2914;42.668;23.346;2022-07-12T02:13:04;94957.73;;;16.48;63.10
5777;BME280;2914;42.668;23.346;2022-07-12T02:15:33;94958.55;;;16.48;63.30
5777;BME280;2914;42.668;23.346;2022-07-12T02:18:03;94958.89;;;16.49;63.01
5777;BME280;2914;42.668;23.346;2022-07-12T02:20:32;94959.70;;;16.50;62.95
5777;BME280;2914;42.668;23.346;2022-07-12T02:23:01;94962.20;;;16.43;63.46
5777;BME280;2914;42.668;23.346;2022-07-12T02:25:30;94958.55;;;16.44;63.64
5777;BME280;2914;42.668;23.346;2022-07-12T02:27:59;94963.24;;;16.17;64.53
5777;BME280;2914;42.668;23.346;2022-07-12T02:30:28;94966.53;;;15.82;66.50
5777;BME280;2914;42.668;23.346;2022-07-12T02:32:57;94964.58;;;16.05;65.67
5777;BME280;2914;42.668;23.346;2022-07-12T02:35:27;94959.84;;;15.78;66.96
5777;BME280;2914;42.668;23.346;2022-07-12T02:37:56;94953.31;;;15.48;68.33
5777;BME280;2914;42.668;23.346;2022-07-12T02:40:25;94959.36;;;15.70;67.63
5777;BME280;2914;42.668;23.346;2022-07-12T02:43:13;94958.40;;;16.00;66.40
5777;BME280;2914;42.668;23.346;2022-07-12T02:45:42;94971.39;;;16.20;65.57
5777;BME280;2914;42.668;23.346;2022-07-12T02:48:11;94965.73;;;16.15;65.30
5777;BME280;2914;42.668;23.346;2022-07-12T02:50:41;94963.55;;;16.22;65.16
5777;BME280;2914;42.668;23.346;2022-07-12T02:53:10;94967.72;;;16.08;65.82
5777;BME280;2914;42.668;23.346;2022-07-12T02:55:40;94966.21;;;16.22;65.26
5777;BME280;2914;42.668;23.346;2022-07-12T02:58:09;94958.91;;;16.24;64.99
5777;BME280;2914;42.668;23.346;2022-07-12T03:00:40;94964.40;;;16.27;64.95
5777;BME280;2914;42.668;23.346;2022-07-12T03:03:09;94965.05;;;16.33;64.93
5777;BME280;2914;42.668;23.346;2022-07-12T03:05:38;94975.22;;;16.34;65.46
5777;BME280;2914;42.668;23.346;2022-07-12T03:08:08;94977.02;;;16.37;64.89
5777;BME280;2914;42.668;23.346;2022-07-12T03:10:38;94979.03;;;16.43;65.87
5777;BME280;2914;42.668;23.346;2022-07-12T03:13:08;94981.02;;;16.41;66.19
5777;BME280;2914;42.668;23.346;2022-07-12T03:15:37;94986.51;;;16.44;65.42
5777;BME280;2914;42.668;23.346;2022-07-12T03:18:06;94985.86;;;16.42;65.66
5777;BME280;2914;42.668;23.346;2022-07-12T03:20:36;94988.01;;;16.47;65.81
5777;BME280;2914;42.668;23.346;2022-07-12T03:23:05;94989.50;;;16.49;64.72
5777;BME280;2914;42.668;23.346;2022-07-12T03:25:34;94988.99;;;16.50;63.80
5777;BME280;2914;42.668;23.346;2022-07-12T03:28:04;94995.00;;;16.52;65.01
5777;BME280;2914;42.668;23.346;2022-07-12T03:30:33;94998.02;;;16.36;66.51
5777;BME280;2914;42.668;23.346;2022-07-12T03:33:03;94999.17;;;16.42;65.98
5777;BME280;2914;42.668;23.346;2022-07-12T03:35:32;94997.33;;;16.38;65.59
5777;BME280;2914;42.668;23.346;2022-07-12T03:38:02;95002.14;;;16.35;65.23
5777;BME280;2914;42.668;23.346;2022-07-12T03:40:32;94998.32;;;16.41;65.01
5777;BME280;2914;42.668;23.346;2022-07-12T03:43:02;95002.48;;;16.44;65.01
5777;BME280;2914;42.668;23.346;2022-07-12T03:45:31;95001.66;;;16.39;65.00
5777;BME280;2914;42.668;23.346;2022-07-12T03:48:00;95007.64;;;16.41;64.96
5777;BME280;2914;42.668;23.346;2022-07-12T03:53:06;94999.48;;;16.39;64.85
5777;BME280;2914;42.668;23.346;2022-07-12T03:55:35;95002.31;;;16.25;64.90
5777;BME280;2914;42.668;23.346;2022-07-12T03:58:04;95001.16;;;16.23;64.84
5777;BME280;2914;42.668;23.346;2022-07-12T04:00:34;95005.66;;;16.31;65.11
5777;BME280;2914;42.668;23.346;2022-07-12T04:05:40;95004.98;;;16.37;65.11
5777;BME280;2914;42.668;23.346;2022-07-12T04:08:10;95015.97;;;16.38;65.00
5777;BME280;2914;42.668;23.346;2022-07-12T04:10:39;95009.48;;;16.37;64.71
5777;BME280;2914;42.668;23.346;2022-07-12T04:13:08;95013.64;;;16.31;65.18
5777;BME280;2914;42.668;23.346;2022-07-12T04:15:37;95016.78;;;16.26;66.90
5777;BME280;2914;42.668;23.346;2022-07-12T04:18:06;95017.46;;;16.24;66.81
5777;BME280;2914;42.668;23.346;2022-07-12T04:20:35;95017.98;;;16.40;65.91
5777;BME280;2914;42.668;23.346;2022-07-12T04:25:42;95021.27;;;16.67;66.69
5777;BME280;2914;42.668;23.346;2022-07-12T04:28:11;95021.95;;;16.65;66.54
5777;BME280;2914;42.668;23.346;2022-07-12T04:33:17;95029.59;;;16.76;64.76
5777;BME280;2914;42.668;23.346;2022-07-12T04:35:46;95032.72;;;16.88;63.91
5777;BME280;2914;42.668;23.346;2022-07-12T04:38:16;95034.02;;;17.17;64.31
5777;BME280;2914;42.668;23.346;2022-07-12T04:40:45;95031.59;;;17.47;62.59
5777;BME280;2914;42.668;23.346;2022-07-12T04:43:14;95035.31;;;17.69;62.83
5777;BME280;2914;42.668;23.346;2022-07-12T04:45:43;95038.23;;;17.87;62.28
5777;BME280;2914;42.668;23.346;2022-07-12T04:48:12;95041.56;;;17.97;62.39
5777;BME280;2914;42.668;23.346;2022-07-12T04:50:41;95041.15;;;18.08;61.64
5777;BME280;2914;42.668;23.346;2022-07-12T04:53:10;95046.84;;;18.28;66.14
5777;BME280;2914;42.668;23.346;2022-07-12T04:55:40;95049.84;;;18.53;65.09
5777;BME280;2914;42.668;23.346;2022-07-12T04:58:09;95047.73;;;18.67;61.40
5777;BME280;2914;42.668;23.346;2022-07-12T05:00:38;95046.78;;;18.79;60.22
5777;BME280;2914;42.668;23.346;2022-07-12T05:03:07;95048.19;;;18.71;60.51
5777;BME280;2914;42.668;23.346;2022-07-12T05:05:36;95046.41;;;18.82;61.49
5777;BME280;2914;42.668;23.346;2022-07-12T05:08:06;95046.58;;;19.04;60.46
5777;BME280;2914;42.668;23.346;2022-07-12T05:10:35;95048.24;;;19.05;58.77
5777;BME280;2914;42.668;23.346;2022-07-12T05:13:04;95046.98;;;18.96;59.26
5777;BME280;2914;42.668;23.346;2022-07-12T05:18:11;95043.27;;;19.46;57.98
5777;BME280;2914;42.668;23.346;2022-07-12T05:20:40;95047.61;;;19.47;56.36
5777;BME280;2914;42.668;23.346;2022-07-12T05:23:09;95040.45;;;19.59;56.37
5777;BME280;2914;42.668;23.346;2022-07-12T05:25:39;95039.73;;;19.80;56.02
5777;BME280;2914;42.668;23.346;2022-07-12T05:28:08;95044.84;;;19.86;55.48
5777;BME280;2914;42.668;23.346;2022-07-12T05:30:37;95042.67;;;19.96;54.85
5777;BME280;2914;42.668;23.346;2022-07-12T05:33:06;95045.45;;;20.13;55.93
5777;BME280;2914;42.668;23.346;2022-07-12T05:38:19;95039.66;;;20.31;54.26
5777;BME280;2914;42.668;23.346;2022-07-12T05:40:48;95042.02;;;20.41;55.12
5777;BME280;2914;42.668;23.346;2022-07-12T05:43:17;95042.48;;;20.45;54.78
5777;BME280;2914;42.668;23.346;2022-07-12T05:45:46;95040.88;;;20.61;53.35
5777;BME280;2914;42.668;23.346;2022-07-12T05:50:53;95042.02;;;20.95;54.56
5777;BME280;2914;42.668;23.346;2022-07-12T05:53:22;95039.61;;;20.90;53.08
5777;BME280;2914;42.668;23.346;2022-07-12T05:55:53;95045.05;;;21.03;53.58
5777;BME280;2914;42.668;23.346;2022-07-12T05:58:22;95042.59;;;21.19;52.39
5777;BME280;2914;42.668;23.346;2022-07-12T06:00:51;95041.91;;;21.28;50.68
5777;BME280;2914;42.668;23.346;2022-07-12T06:03:20;95037.16;;;21.41;50.57
5777;BME280;2914;42.668;23.346;2022-07-12T06:05:50;95037.28;;;21.43;50.32
5777;BME280;2914;42.668;23.346;2022-07-12T06:08:19;95032.13;;;21.48;49.57
5777;BME280;2914;42.668;23.346;2022-07-12T06:10:48;95037.92;;;21.63;50.89
5777;BME280;2914;42.668;23.346;2022-07-12T06:13:17;95030.03;;;21.79;50.19
5777;BME280;2914;42.668;23.346;2022-07-12T06:15:46;95032.80;;;21.68;49.32
5777;BME280;2914;42.668;23.346;2022-07-12T06:20:59;95027.28;;;21.90;49.13
5777;BME280;2914;42.668;23.346;2022-07-12T06:23:28;95028.98;;;21.97;49.03
5777;BME280;2914;42.668;23.346;2022-07-12T06:25:57;95021.73;;;21.98;48.74
5777;BME280;2914;42.668;23.346;2022-07-12T06:28:26;95024.02;;;21.94;48.39
5777;BME280;2914;42.668;23.346;2022-07-12T06:30:55;95023.44;;;21.81;48.89
5777;BME280;2914;42.668;23.346;2022-07-12T06:33:24;95027.84;;;21.96;49.04
5777;BME280;2914;42.668;23.346;2022-07-12T06:35:54;95022.78;;;22.03;48.87
5777;BME280;2914;42.668;23.346;2022-07-12T06:38:23;95023.17;;;22.25;48.60
5777;BME280;2914;42.668;23.346;2022-07-12T06:40:52;95024.47;;;22.56;49.29
5777;BME280;2914;42.668;23.346;2022-07-12T06:43:21;95025.09;;;22.44;46.58
5777;BME280;2914;42.668;23.346;2022-07-12T06:45:50;95030.50;;;22.64;47.15
5777;BME280;2914;42.668;23.346;2022-07-12T06:48:19;95028.00;;;22.76;45.37
5777;BME280;2914;42.668;23.346;2022-07-12T06:50:48;95018.49;;;23.00;46.66
5777;BME280;2914;42.668;23.346;2022-07-12T06:53:17;95021.18;;;23.07;46.30
5777;BME280;2914;42.668;23.346;2022-07-12T06:55:48;95013.73;;;23.23;45.26
5777;BME280;2914;42.668;23.346;2022-07-12T06:58:18;95017.88;;;23.25;45.90
5777;BME280;2914;42.668;23.346;2022-07-12T07:03:25;95014.63;;;23.39;45.20
5777;BME280;2914;42.668;23.346;2022-07-12T07:05:54;95014.53;;;23.36;45.58
5777;BME280;2914;42.668;23.346;2022-07-12T07:08:23;95019.90;;;23.43;46.10
5777;BME280;2914;42.668;23.346;2022-07-12T07:10:53;95021.33;;;23.52;46.33
5777;BME280;2914;42.668;23.346;2022-07-12T07:13:22;95015.28;;;23.64;45.44
5777;BME280;2914;42.668;23.346;2022-07-12T07:15:51;95021.80;;;23.65;45.58
5777;BME280;2914;42.668;23.346;2022-07-12T07:18:20;95016.53;;;23.61;43.71
5777;BME280;2914;42.668;23.346;2022-07-12T07:20:49;95018.37;;;23.74;44.92
5777;BME280;2914;42.668;23.346;2022-07-12T07:23:19;95011.56;;;23.87;43.73
5777;BME280;2914;42.668;23.346;2022-07-12T07:25:48;95012.31;;;23.92;43.72
5777;BME280;2914;42.668;23.346;2022-07-12T07:28:17;95014.98;;;23.99;43.34
5777;BME280;2914;42.668;23.346;2022-07-12T07:30:46;95025.60;;;23.74;43.20
5777;BME280;2914;42.668;23.346;2022-07-12T07:33:22;95019.36;;;23.86;43.95
5777;BME280;2914;42.668;23.346;2022-07-12T07:35:51;95019.77;;;23.90;41.98
5777;BME280;2914;42.668;23.346;2022-07-12T07:38:21;95015.95;;;23.88;41.23
5777;BME280;2914;42.668;23.346;2022-07-12T07:40:50;95002.04;;;23.92;40.41
5777;BME280;2914;42.668;23.346;2022-07-12T07:43:19;95007.74;;;23.93;39.71
5777;BME280;2914;42.668;23.346;2022-07-12T07:45:48;95001.41;;;23.96;39.01
5777;BME280;2914;42.668;23.346;2022-07-12T07:48:19;95004.23;;;23.85;39.02
5777;BME280;2914;42.668;23.346;2022-07-12T07:50:48;95006.92;;;23.85;39.65
5777;BME280;2914;42.668;23.346;2022-07-12T07:53:17;95007.87;;;23.88;38.07
5777;BME280;2914;42.668;23.346;2022-07-12T07:55:46;94999.88;;;23.91;38.24
5777;BME280;2914;42.668;23.346;2022-07-12T07:58:16;94998.45;;;24.11;38.66
5777;BME280;2914;42.668;23.346;2022-07-12T08:00:45;94996.38;;;24.07;38.23
5777;BME280;2914;42.668;23.346;2022-07-12T08:03:14;95000.98;;;23.99;37.60
5777;BME280;2914;42.668;23.346;2022-07-12T08:05:43;95001.39;;;24.03;37.97
5777;BME280;2914;42.668;23.346;2022-07-12T08:08:12;94997.22;;;24.07;37.76
5777;BME280;2914;42.668;23.346;2022-07-12T08:10:41;95001.33;;;24.10;38.23
5777;BME280;2914;42.668;23.346;2022-07-12T08:13:11;94999.31;;;24.21;38.54
5777;BME280;2914;42.668;23.346;2022-07-12T08:15:40;94997.09;;;24.27;37.49
5777;BME280;2914;42.668;23.346;2022-07-12T08:18:09;94992.70;;;24.33;36.28
5777;BME280;2914;42.668;23.346;2022-07-12T08:20:38;94992.91;;;24.31;36.68
5777;BME280;2914;42.668;23.346;2022-07-12T08:23:07;94989.14;;;24.39;37.09
5777;BME280;2914;42.668;23.346;2022-07-12T08:25:37;94987.09;;;24.18;37.23
5777;BME280;2914;42.668;23.346;2022-07-12T08:28:06;94987.78;;;24.23;37.28
5777;BME280;2914;42.668;23.346;2022-07-12T08:30:35;94980.08;;;24.43;38.62
5777;BME280;2914;42.668;23.346;2022-07-12T08:33:05;94979.08;;;24.37;37.76
5777;BME280;2914;42.668;23.346;2022-07-12T08:35:34;94988.48;;;24.12;37.61
5777;BME280;2914;42.668;23.346;2022-07-12T08:38:03;94982.44;;;24.00;37.86
5777;BME280;2914;42.668;23.346;2022-07-12T08:43:09;94984.00;;;23.99;38.37
5777;BME280;2914;42.668;23.346;2022-07-12T08:45:39;94982.08;;;23.77;38.59
5777;BME280;2914;42.668;23.346;2022-07-12T08:48:09;94988.75;;;23.74;39.28
5777;BME280;2914;42.668;23.346;2022-07-12T08:50:38;94977.05;;;23.64;39.54
5777;BME280;2914;42.668;23.346;2022-07-12T08:53:10;94969.77;;;23.78;41.42
5777;BME280;2914;42.668;23.346;2022-07-12T08:55:42;94966.02;;;23.79;39.60
5777;BME280;2914;42.668;23.346;2022-07-12T08:58:16;94966.14;;;23.75;39.13
5777;BME280;2914;42.668;23.346;2022-07-12T09:00:46;94959.41;;;23.75;38.12
5777;BME280;2914;42.668;23.346;2022-07-12T09:03:16;94965.59;;;23.60;39.13
5777;BME280;2914;42.668;23.346;2022-07-12T09:05:50;94961.26;;;23.23;38.72
5777;BME280;2914;42.668;23.346;2022-07-12T09:08:30;94965.38;;;23.32;40.13
5777;BME280;2914;42.668;23.346;2022-07-12T09:11:02;94962.03;;;23.43;38.17
5777;BME280;2914;42.668;23.346;2022-07-12T09:13:50;94965.11;;;23.53;36.83
5777;BME280;2914;42.668;23.346;2022-07-12T09:16:21;94957.97;;;23.50;38.27
5777;BME280;2914;42.668;23.346;2022-07-12T09:18:51;94953.91;;;23.57;36.91
5777;BME280;2914;42.668;23.346;2022-07-12T09:21:27;94956.55;;;23.70;38.20
5777;BME280;2914;42.668;23.346;2022-07-12T09:23:59;94959.47;;;23.84;38.46
5777;BME280;2914;42.668;23.346;2022-07-12T09:29:15;94944.81;;;24.03;37.81
5777;BME280;2914;42.668;23.346;2022-07-12T09:31:48;94949.26;;;24.00;36.51
5777;BME280;2914;42.668;23.346;2022-07-12T09:34:37;94941.93;;;23.98;36.15
5777;BME280;2914;42.668;23.346;2022-07-12T09:37:25;94942.30;;;24.01;36.68
5777;BME280;2914;42.668;23.346;2022-07-12T09:39:55;94942.28;;;23.85;36.63
5777;BME280;2914;42.668;23.346;2022-07-12T09:42:24;94943.34;;;23.62;36.81
5777;BME280;2914;42.668;23.346;2022-07-12T09:44:54;94946.41;;;23.65;37.28
5777;BME280;2914;42.668;23.346;2022-07-12T09:47:24;94950.23;;;23.67;38.30
5777;BME280;2914;42.668;23.346;2022-07-12T09:49:54;94949.19;;;23.68;38.96
5777;BME280;2914;42.668;23.346;2022-07-12T09:52:24;94950.27;;;23.83;38.58
5777;BME280;2914;42.668;23.346;2022-07-12T09:54:55;94941.21;;;23.93;37.24
5777;BME280;2914;42.668;23.346;2022-07-12T09:57:27;94941.68;;;23.77;35.94
5777;BME280;2914;42.668;23.346;2022-07-12T09:59:59;94940.31;;;23.83;37.22
5777;BME280;2914;42.668;23.346;2022-07-12T10:02:28;94939.39;;;23.80;36.59
5777;BME280;2914;42.668;23.346;2022-07-12T10:04:59;94948.61;;;23.82;36.45
5777;BME280;2914;42.668;23.346;2022-07-12T10:07:31;94947.26;;;23.82;34.48
5777;BME280;2914;42.668;23.346;2022-07-12T10:10:01;94949.58;;;23.78;33.93
5777;BME280;2914;42.668;23.346;2022-07-12T10:12:31;94930.84;;;23.74;33.93
5777;BME280;2914;42.668;23.346;2022-07-12T10:15:07;94941.55;;;23.65;33.65
5777;BME280;2914;42.668;23.346;2022-07-12T10:17:38;94940.77;;;23.58;33.41
5777;BME280;2914;42.668;23.346;2022-07-12T10:20:18;94940.78;;;23.51;33.99
5777;BME280;2914;42.668;23.346;2022-07-12T10:22:50;94939.84;;;23.48;34.08
5777;BME280;2914;42.668;23.346;2022-07-12T10:25:31;94929.73;;;23.43;33.14
5777;BME280;2914;42.668;23.346;2022-07-12T10:28:01;94926.55;;;23.60;33.48
5777;BME280;2914;42.668;23.346;2022-07-12T10:30:31;94928.21;;;23.61;34.08
5777;BME280;2914;42.668;23.346;2022-07-12T10:33:02;94925.95;;;23.58;34.60
5777;BME280;2914;42.668;23.346;2022-07-12T10:35:32;94927.18;;;23.62;34.36
5777;BME280;2914;42.668;23.346;2022-07-12T10:38:18;94925.33;;;23.55;34.77
5777;BME280;2914;42.668;23.346;2022-07-12T10:40:51;94923.67;;;23.54;34.61
5777;BME280;2914;42.668;23.346;2022-07-12T10:43:22;94917.28;;;23.49;35.13
5777;BME280;2914;42.668;23.346;2022-07-12T10:45:53;94918.78;;;23.31;35.30
5777;BME280;2914;42.668;23.346;2022-07-12T10:48:27;94913.84;;;23.28;35.80
5777;BME280;2914;42.668;23.346;2022-07-12T10:50:57;94914.68;;;23.29;35.69
5777;BME280;2914;42.668;23.346;2022-07-12T10:53:30;94907.76;;;23.24;35.56
5777;BME280;2914;42.668;23.346;2022-07-12T10:56:11;94909.70;;;23.26;35.54
5777;BME280;2914;42.668;23.346;2022-07-12T10:58:44;94916.43;;;23.26;35.72
5777;BME280;2914;42.668;23.346;2022-07-12T11:01:15;94909.85;;;23.44;36.93
5777;BME280;2914;42.668;23.346;2022-07-12T11:03:47;94913.34;;;23.51;35.95
5777;BME280;2914;42.668;23.346;2022-07-12T11:06:19;94916.94;;;23.54;36.00
5777;BME280;2914;42.668;23.346;2022-07-12T11:08:54;94901.17;;;23.35;34.63
5777;BME280;2914;42.668;23.346;2022-07-12T11:11:25;94912.62;;;23.53;34.34
5777;BME280;2914;42.668;23.346;2022-07-12T11:13:56;94913.45;;;23.47;35.73
5777;BME280;2914;42.668;23.346;2022-07-12T11:16:27;94912.98;;;23.41;35.60
5777;BME280;2914;42.668;23.346;2022-07-12T11:18:57;94911.88;;;23.33;35.81
5777;BME280;2914;42.668;23.346;2022-07-12T11:21:26;94919.13;;;23.26;35.70
5777;BME280;2914;42.668;23.346;2022-07-12T11:23:55;94927.34;;;23.08;36.50
5777;BME280;2914;42.668;23.346;2022-07-12T11:26:26;94919.27;;;23.08;36.50
5777;BME280;2914;42.668;23.346;2022-07-12T11:28:59;94924.13;;;23.09;37.58
5777;BME280;2914;42.668;23.346;2022-07-12T11:31:28;94919.34;;;23.24;37.20
5777;BME280;2914;42.668;23.346;2022-07-12T11:33:57;94917.54;;;23.34;36.97
5777;BME280;2914;42.668;23.346;2022-07-12T11:36:27;94908.94;;;23.41;37.31
5777;BME280;2914;42.668;23.346;2022-07-12T11:38:58;94905.72;;;23.42;37.38
5777;BME280;2914;42.668;23.346;2022-07-12T11:41:27;94917.06;;;23.50;37.51
5777;BME280;2914;42.668;23.346;2022-07-12T11:43:57;94917.95;;;23.37;36.38
5777;BME280;2914;42.668;23.346;2022-07-12T11:46:26;94900.31;;;23.48;37.21
5777;BME280;2914;42.668;23.346;2022-07-12T11:48:55;94900.72;;;23.68;36.77
5777;BME280;2914;42.668;23.346;2022-07-12T11:54:10;94899.38;;;23.23;37.17
5777;BME280;2914;42.668;23.346;2022-07-12T11:56:39;94899.05;;;23.21;36.97
5777;BME280;2914;42.668;23.346;2022-07-12T11:59:08;94893.75;;;23.31;37.51
5777;BME280;2914;42.668;23.346;2022-07-12T12:01:38;94890.34;;;23.33;37.24
5777;BME280;2914;42.668;23.346;2022-07-12T12:04:11;94889.69;;;23.37;37.04
5777;BME280;2914;42.668;23.346;2022-07-12T12:06:41;94893.30;;;23.41;37.22
5777;BME280;2914;42.668;23.346;2022-07-12T12:09:10;94881.30;;;23.36;36.70
5777;BME280;2914;42.668;23.346;2022-07-12T12:11:39;94893.77;;;23.24;37.16
5777;BME280;2914;42.668;23.346;2022-07-12T12:14:08;94886.78;;;23.16;37.62
5777;BME280;2914;42.668;23.346;2022-07-12T12:16:38;94896.48;;;23.17;37.88
5777;BME280;2914;42.668;23.346;2022-07-12T12:19:12;94882.58;;;23.27;37.19
5777;BME280;2914;42.668;23.346;2022-07-12T12:21:41;94885.27;;;23.27;36.65
5777;BME280;2914;42.668;23.346;2022-07-12T12:24:11;94889.00;;;23.33;36.41
5777;BME280;2914;42.668;23.346;2022-07-12T12:26:41;94887.55;;;23.30;36.27
5777;BME280;2914;42.668;23.346;2022-07-12T12:29:10;94891.63;;;23.17;35.73
5777;BME280;2914;42.668;23.346;2022-07-12T12:31:39;94877.97;;;23.18;35.63
5777;BME280;2914;42.668;23.346;2022-07-12T12:34:11;94870.34;;;23.31;35.20
5777;BME280;2914;42.668;23.346;2022-07-12T12:36:41;94870.92;;;23.17;37.19
5777;BME280;2914;42.668;23.346;2022-07-12T12:39:11;94877.75;;;23.07;37.63
5777;BME280;2914;42.668;23.346;2022-07-12T12:41:41;94873.69;;;22.91;37.88
5777;BME280;2914;42.668;23.346;2022-07-12T12:44:12;94885.59;;;22.85;37.85
5777;BME280;2914;42.668;23.346;2022-07-12T12:46:53;94893.74;;;22.95;38.48
5777;BME280;2914;42.668;23.346;2022-07-12T12:49:46;94883.25;;;23.02;38.02
5777;BME280;2914;42.668;23.346;2022-07-12T12:52:17;94880.98;;;23.06;38.61
5777;BME280;2914;42.668;23.346;2022-07-12T12:54:46;94884.16;;;23.19;37.62
5777;BME280;2914;42.668;23.346;2022-07-12T12:57:16;94882.17;;;23.30;37.66
5777;BME280;2914;42.668;23.346;2022-07-12T12:59:47;94883.64;;;23.26;37.82
5777;BME280;2914;42.668;23.346;2022-07-12T13:02:17;94876.23;;;23.08;37.54
5777;BME280;2914;42.668;23.346;2022-07-12T13:04:46;94883.25;;;23.02;38.13
5777;BME280;2914;42.668;23.346;2022-07-12T13:07:16;94881.77;;;22.84;38.30
5777;BME280;2914;42.668;23.346;2022-07-12T13:09:45;94873.95;;;22.98;38.98
5777;BME280;2914;42.668;23.346;2022-07-12T13:12:14;94883.52;;;22.87;38.20
5777;BME280;2914;42.668;23.346;2022-07-12T13:14:44;94868.50;;;22.96;37.78
5777;BME280;2914;42.668;23.346;2022-07-12T13:17:13;94877.94;;;22.89;38.16
5777;BME280;2914;42.668;23.346;2022-07-12T13:19:42;94866.56;;;22.80;37.49
5777;BME280;2914;42.668;23.346;2022-07-12T13:22:11;94876.72;;;22.78;36.58
5777;BME280;2914;42.668;23.346;2022-07-12T13:24:40;94878.50;;;22.62;37.44
5777;BME280;2914;42.668;23.346;2022-07-12T13:27:09;94866.51;;;22.64;38.03
5777;BME280;2914;42.668;23.346;2022-07-12T13:29:39;94877.36;;;22.67;38.72
5777;BME280;2914;42.668;23.346;2022-07-12T13:32:08;94868.86;;;22.77;38.85
5777;BME280;2914;42.668;23.346;2022-07-12T13:34:38;94864.61;;;22.78;38.95
5777;BME280;2914;42.668;23.346;2022-07-12T13:37:07;94870.31;;;22.79;38.39
5777;BME280;2914;42.668;23.346;2022-07-12T13:39:37;94866.86;;;22.88;38.01
5777;BME280;2914;42.668;23.346;2022-07-12T13:42:24;94866.43;;;22.91;37.88
5777;BME280;2914;42.668;23.346;2022-07-12T13:44:53;94863.13;;;22.96;37.70
5777;BME280;2914;42.668;23.346;2022-07-12T13:47:23;94867.77;;;22.98;37.17
5777;BME280;2914;42.668;23.346;2022-07-12T13:49:52;94857.75;;;22.96;37.42
5777;BME280;2914;42.668;23.346;2022-07-12T13:52:21;94863.47;;;22.83;37.02
5777;BME280;2914;42.668;23.346;2022-07-12T13:54:50;94873.25;;;22.94;37.09
5777;BME280;2914;42.668;23.346;2022-07-12T13:57:20;94867.34;;;22.94;37.04
5777;BME280;2914;42.668;23.346;2022-07-12T13:59:49;94861.37;;;22.92;37.76
5777;BME280;2914;42.668;23.346;2022-07-12T14:02:19;94870.77;;;22.99;37.41
5777;BME280;2914;42.668;23.346;2022-07-12T14:04:48;94859.69;;;22.98;37.71